Time;durP1;ratioP1;P1;durP2;ratioP2;P2;SDS_P1;SDS_P2;PMS_P1;PMS_P2;Temp;Humidity;BMP_temperature;BMP_pressure;BME280_temperature;BME280_humidity;BME280_pressure;Samples;Min_cycle;Max_cycle;Signal;HPM_P1;HPM_P2
2023/10/25 00:00:10;;;;;;;;;;;;;;;7.89;100.00;100117.47;5054564;28;19999;-87
2023/10/25 00:02:36;;;;;;;;;;;;;;;7.85;100.00;100111.53;5055336;28;19913;-88
2023/10/25 00:05:01;;;;;;;;;;;;;;;7.85;100.00;100115.81;5055395;28;19982;-87
2023/10/25 00:07:27;;;;;;;;;;;;;;;7.84;100.00;100114.09;5054509;28;19913;-87
2023/10/25 00:09:52;;;;;;;;;;;;;;;7.84;100.00;100109.81;5054597;28;19963;-88
2023/10/25 00:12:17;;;;;;;;;;;;;;;7.83;100.00;100107.22;5054734;28;20365;-88
2023/10/25 00:14:42;;;;;;;;;;;;;;;7.81;100.00;100106.44;5055276;28;19909;-87
2023/10/25 00:17:07;;;;;;;;;;;;;;;7.79;100.00;100101.25;5055064;28;20011;-88
2023/10/25 00:19:33;;;;;;;;;;;;;;;7.78;100.00;100099.56;5055429;28;19959;-88
2023/10/25 00:21:58;;;;;;;;;;;;;;;7.76;100.00;100098.75;5054432;28;19916;-88
2023/10/25 00:24:39;;;;;;;;;;;;;;;7.77;100.00;100089.25;5061129;23;19920;-87
2023/10/25 00:27:04;;;;;;;;;;;;;;;7.76;100.00;100095.28;5054419;28;19936;-87
2023/10/25 00:29:29;;;;;;;;;;;;;;;7.75;100.00;100093.59;5054091;28;20369;-88
2023/10/25 00:31:55;;;;;;;;;;;;;;;7.72;100.00;100099.66;5055006;28;19955;-87
2023/10/25 00:34:20;;;;;;;;;;;;;;;7.70;100.00;100098.81;5054492;28;19913;-87
2023/10/25 00:36:45;;;;;;;;;;;;;;;7.68;100.00;100101.44;5054257;28;19917;-88
2023/10/25 00:39:19;;;;;;;;;;;;;;;7.68;100.00;100108.31;5054353;28;19916;-87
2023/10/25 00:41:45;;;;;;;;;;;;;;;7.67;100.00;100109.19;5053905;28;19917;-86
2023/10/25 00:44:10;;;;;;;;;;;;;;;7.68;100.00;100100.56;5054264;28;19940;-87
2023/10/25 00:46:36;;;;;;;;;;;;;;;7.67;100.00;100104.03;5054228;28;20323;-88
2023/10/25 00:49:02;;;;;;;;;;;;;;;7.66;100.00;100100.59;5052504;28;19920;-88
2023/10/25 00:51:38;;;;;;;;;;;;;;;7.62;100.00;100101.53;5054946;28;19959;-88
2023/10/25 00:54:04;;;;;;;;;;;;;;;7.61;100.00;100104.13;5054668;28;20335;-87
2023/10/25 00:56:31;;;;;;;;;;;;;;;7.58;100.00;100105.88;5054055;28;19913;-87
2023/10/25 00:58:57;;;;;;;;;;;;;;;7.57;100.00;100101.59;5053861;28;19913;-88
2023/10/25 01:01:23;;;;;;;;;;;;;;;7.54;100.00;100096.47;5053824;28;19913;-87
2023/10/25 01:03:52;;;;;;;;;;;;;;;7.51;100.00;100090.50;5053474;28;19940;-87
2023/10/25 01:06:18;;;;;;;;;;;;;;;7.51;100.00;100091.38;5053927;28;19913;-87
2023/10/25 01:08:43;;;;;;;;;;;;;;;7.51;100.00;100085.34;5053946;28;19916;-87
2023/10/25 01:11:09;;;;;;;;;;;;;;;7.49;100.00;100085.38;5053523;28;19963;-87
2023/10/25 01:13:34;;;;;;;;;;;;;;;7.51;100.00;100081.03;5053568;28;19948;-87
2023/10/25 01:16:05;;;;;;;;;;;;;;;7.50;100.00;100079.34;5053915;28;19913;-87
2023/10/25 01:18:31;;;;;;;;;;;;;;;7.51;100.00;100082.75;5053411;28;19913;-87
2023/10/25 01:20:56;;;;;;;;;;;;;;;7.50;100.00;100076.75;5053503;28;19996;-88
2023/10/25 01:23:21;;;;;;;;;;;;;;;7.49;100.00;100077.63;5053644;28;19974;-87
2023/10/25 01:25:46;;;;;;;;;;;;;;;7.47;100.00;100074.19;5052639;28;19919;-87
2023/10/25 01:28:12;;;;;;;;;;;;;;;7.47;100.00;100071.63;5054072;28;20322;-88
2023/10/25 01:30:40;;;;;;;;;;;;;;;7.47;100.00;100063.88;5053316;28;19917;-87
2023/10/25 01:33:06;;;;;;;;;;;;;;;7.46;100.00;100066.50;5052845;28;19917;-87
2023/10/25 01:35:31;;;;;;;;;;;;;;;7.42;100.00;100058.78;5053575;28;19923;-88
2023/10/25 01:37:56;;;;;;;;;;;;;;;7.39;100.00;100045.91;5053705;28;19920;-87
2023/10/25 01:40:22;;;;;;;;;;;;;;;7.36;100.00;100051.16;5052855;28;19919;-88
2023/10/25 01:42:47;;;;;;;;;;;;;;;7.32;100.00;100046.06;5052861;28;19913;-87
2023/10/25 01:45:15;;;;;;;;;;;;;;;7.31;100.00;100041.75;5052843;28;19912;-87
2023/10/25 01:50:18;;;;;;;;;;;;;;;7.23;100.00;100037.53;5265846;23;19928;-88
2023/10/25 01:52:43;;;;;;;;;;;;;;;7.21;100.00;100039.28;5052823;28;19917;-87
2023/10/25 01:55:09;;;;;;;;;;;;;;;7.19;100.00;100032.44;5053150;28;19947;-88
2023/10/25 01:57:34;;;;;;;;;;;;;;;7.18;100.00;100028.16;5053688;28;19919;-87
2023/10/25 02:00:01;;;;;;;;;;;;;;;7.17;100.00;100024.75;5052613;28;19959;-87
2023/10/25 02:02:44;;;;;;;;;;;;;;;7.14;100.00;100019.63;5053013;28;19913;-87
2023/10/25 02:05:10;;;;;;;;;;;;;;;7.11;100.00;100019.66;5052929;28;19912;-87
2023/10/25 02:07:41;;;;;;;;;;;;;;;7.07;100.00;100013.69;5052778;28;19916;-88
2023/10/25 02:10:12;;;;;;;;;;;;;;;7.10;100.00;100020.53;5052817;28;20392;-87
2023/10/25 02:16:17;;;;;;;;;;;;;;;7.15;100.00;100010.16;5052972;28;20348;-87
2023/10/25 02:21:51;;;;;;;;;;;;;;;7.24;100.00;100000.53;5053141;28;19924;-87
2023/10/25 02:24:25;;;;;;;;;;;;;;;7.29;100.00;99997.88;5055978;28;19917;-88
2023/10/25 02:26:51;;;;;;;;;;;;;;;7.33;100.00;100002.13;5059591;28;19993;-87
2023/10/25 02:29:20;;;;;;;;;;;;;;;7.36;100.00;99996.06;5079325;28;19952;-87
2023/10/25 02:31:45;;;;;;;;;;;;;;;7.39;100.00;99994.28;5081477;28;19923;-86
2023/10/25 02:34:10;;;;;;;;;;;;;;;7.40;100.00;99990.00;5077883;28;19912;-87
2023/10/25 02:36:42;;;;;;;;;;;;;;;7.40;100.00;99992.56;5050575;28;19912;-87
2023/10/25 02:39:10;;;;;;;;;;;;;;;7.42;100.00;99996.00;5071173;28;19959;-87
2023/10/25 02:41:37;;;;;;;;;;;;;;;7.41;100.00;99986.53;5072457;28;19921;-87
2023/10/25 02:44:02;;;;;;;;;;;;;;;7.41;100.00;99979.63;5072912;28;19916;-87
2023/10/25 02:46:27;;;;;;;;;;;;;;;7.44;100.00;99981.31;5072341;28;19912;-87
2023/10/25 02:48:53;;;;;;;;;;;;;;;7.46;100.00;99973.56;5071740;28;19924;-87
2023/10/25 02:51:21;;;;;;;;;;;;;;;7.48;100.00;99967.47;5072699;28;20054;-87
2023/10/25 02:53:47;;;;;;;;;;;;;;;7.49;100.00;99969.19;5072368;28;19913;-87
2023/10/25 02:56:12;;;;;;;;;;;;;;;7.50;100.00;99970.03;5074674;28;19916;-86
2023/10/25 02:58:37;;;;;;;;;;;;;;;7.50;100.00;99970.03;5076324;28;19919;-87
2023/10/25 03:01:05;;;;;;;;;;;;;;;7.48;100.00;99961.47;5076003;28;20292;-87
2023/10/25 03:03:31;;;;;;;;;;;;;;;7.47;100.00;99955.44;5075522;28;19917;-87
2023/10/25 03:05:57;;;;;;;;;;;;;;;7.49;100.00;99958.00;5075783;28;20288;-87
2023/10/25 03:08:25;;;;;;;;;;;;;;;7.49;100.00;99953.69;5076467;28;19919;-87
2023/10/25 03:10:52;;;;;;;;;;;;;;;7.51;100.00;99948.50;5075525;28;20283;-87
2023/10/25 03:13:18;;;;;;;;;;;;;;;7.50;100.00;99939.03;5076379;28;20011;-87
2023/10/25 03:15:43;;;;;;;;;;;;;;;7.49;100.00;99933.03;5075736;28;19966;-87
2023/10/25 03:18:09;;;;;;;;;;;;;;;7.51;100.00;99930.41;5075680;28;19940;-87
2023/10/25 03:20:34;;;;;;;;;;;;;;;7.53;100.00;99928.66;5075570;28;20010;-87
2023/10/25 03:22:59;;;;;;;;;;;;;;;7.53;100.00;99924.38;5075277;28;19920;-87
2023/10/25 03:25:24;;;;;;;;;;;;;;;7.54;100.00;99928.63;5074869;28;19918;-87
2023/10/25 03:27:50;;;;;;;;;;;;;;;7.55;100.00;99927.75;5075229;28;19931;-87
2023/10/25 03:30:16;;;;;;;;;;;;;;;7.56;100.00;99926.03;5075667;28;19917;-87
2023/10/25 03:32:41;;;;;;;;;;;;;;;7.57;100.00;99920.00;5074891;28;19912;-86
2023/10/25 03:35:06;;;;;;;;;;;;;;;7.60;100.00;99919.91;5075653;28;19919;-87
2023/10/25 03:37:32;;;;;;;;;;;;;;;7.61;100.00;99916.47;5075780;28;19913;-87
2023/10/25 03:39:57;;;;;;;;;;;;;;;7.62;100.00;99919.91;5074608;28;19917;-87
2023/10/25 03:42:22;;;;;;;;;;;;;;;7.63;100.00;99913.88;5075616;28;19966;-87
2023/10/25 03:44:50;;;;;;;;;;;;;;;7.64;100.00;99918.16;5074332;28;20003;-87
2023/10/25 03:47:16;;;;;;;;;;;;;;;7.65;100.00;99912.13;5075671;28;19912;-87
2023/10/25 03:49:41;;;;;;;;;;;;;;;7.65;100.00;99912.97;5075185;28;20019;-86
2023/10/25 03:52:06;;;;;;;;;;;;;;;7.67;100.00;99903.47;5075341;28;19912;-87
2023/10/25 03:54:31;;;;;;;;;;;;;;;7.68;100.00;99901.72;5075165;28;20364;-87
2023/10/25 03:56:57;;;;;;;;;;;;;;;7.69;100.00;99903.41;5075076;28;19957;-87
2023/10/25 03:59:22;;;;;;;;;;;;;;;7.69;100.00;99900.84;5075130;28;20034;-87
2023/10/25 04:01:47;;;;;;;;;;;;;;;7.69;100.00;99904.28;5074915;28;19940;-87
2023/10/25 04:04:18;;;;;;;;;;;;;;;7.69;100.00;99895.66;5074925;28;19917;-87
2023/10/25 04:06:44;;;;;;;;;;;;;;;7.70;100.00;99900.81;5074910;28;19919;-88
2023/10/25 04:09:09;;;;;;;;;;;;;;;7.71;100.00;99902.50;5075634;28;19912;-88
2023/10/25 04:11:34;;;;;;;;;;;;;;;7.72;100.00;99899.03;5075350;28;19912;-87
2023/10/25 04:13:59;;;;;;;;;;;;;;;7.72;100.00;99893.88;5073106;28;19920;-87
2023/10/25 04:16:24;;;;;;;;;;;;;;;7.73;100.00;99900.75;5074902;28;19919;-87
2023/10/25 04:18:50;;;;;;;;;;;;;;;7.75;100.00;99894.69;5074073;28;19912;-88
2023/10/25 04:21:15;;;;;;;;;;;;;;;7.75;100.00;99894.69;5074261;28;20279;-87
2023/10/25 04:23:40;;;;;;;;;;;;;;;7.79;100.00;99889.44;5074381;28;19917;-87
2023/10/25 04:26:06;;;;;;;;;;;;;;;7.75;100.00;99895.56;5074618;28;19973;-87
2023/10/25 04:28:31;;;;;;;;;;;;;;;7.74;100.00;99888.69;5074315;28;19948;-87
2023/10/25 04:30:57;;;;;;;;;;;;;;;7.75;100.00;99889.53;5073998;28;19912;-87
2023/10/25 04:33:22;;;;;;;;;;;;;;;7.76;100.00;99886.94;5074316;28;19922;-87
2023/10/25 04:35:47;;;;;;;;;;;;;;;7.77;100.00;99893.78;5073492;28;20333;-87
2023/10/25 04:38:12;;;;;;;;;;;;;;;7.78;100.00;99881.75;5073896;28;19912;-87
2023/10/25 04:40:37;;;;;;;;;;;;;;;7.78;100.00;99882.56;5074594;28;19954;-87
2023/10/25 04:43:02;;;;;;;;;;;;;;;7.79;100.00;99879.13;5073647;28;19920;-87
2023/10/25 04:45:29;;;;;;;;;;;;;;;7.80;100.00;99877.41;5074029;28;19908;-87
2023/10/25 04:47:54;;;;;;;;;;;;;;;7.80;100.00;99870.47;5073276;28;19916;-87
2023/10/25 04:50:20;;;;;;;;;;;;;;;7.80;100.00;99867.06;5073787;28;19962;-87
2023/10/25 04:52:45;;;;;;;;;;;;;;;7.81;100.00;99868.78;5073527;28;20353;-87
2023/10/25 04:55:13;;;;;;;;;;;;;;;7.82;100.00;99866.16;5073570;28;19923;-87
2023/10/25 04:57:39;;;;;;;;;;;;;;;7.82;100.00;99858.41;5074073;28;19913;-87
2023/10/25 05:00:07;;;;;;;;;;;;;;;7.85;100.00;99862.66;5073714;28;19924;-87
2023/10/25 05:02:33;;;;;;;;;;;;;;;7.84;100.00;99851.47;5073072;28;19916;-87
2023/10/25 05:04:58;;;;;;;;;;;;;;;7.85;100.00;99849.72;5073794;28;20352;-87
2023/10/25 05:07:23;;;;;;;;;;;;;;;7.87;100.00;99846.25;5076899;28;19913;-87
2023/10/25 05:09:48;;;;;;;;;;;;;;;7.86;100.00;99841.09;5079240;28;19920;-87
2023/10/25 05:12:15;;;;;;;;;;;;;;;7.86;100.00;99835.94;5079720;28;19908;-86
2023/10/25 05:14:40;;;;;;;;;;;;;;;7.86;100.00;99835.94;5077739;28;19916;-87
2023/10/25 05:17:06;;;;;;;;;;;;;;;7.88;100.00;99835.00;5077913;28;19947;-88
2023/10/25 05:19:32;;;;;;;;;;;;;;;7.89;100.00;99830.72;5073888;28;19923;-87
2023/10/25 05:21:59;;;;;;;;;;;;;;;7.87;100.00;99825.59;5072974;28;19917;-87
2023/10/25 05:24:24;;;;;;;;;;;;;;;7.87;100.00;99810.09;5073359;28;20375;-87
2023/10/25 05:26:50;;;;;;;;;;;;;;;7.87;100.00;99812.66;5072870;28;19916;-87
2023/10/25 05:29:15;;;;;;;;;;;;;;;7.87;100.00;99804.91;5073194;28;19912;-87
2023/10/25 05:31:42;;;;;;;;;;;;;;;7.88;100.00;99804.00;5072575;28;20287;-87
2023/10/25 05:34:11;;;;;;;;;;;;;;;7.92;100.00;99794.50;5073874;28;20285;-87
2023/10/25 05:36:36;;;;;;;;;;;;;;;7.89;100.00;99802.28;5073688;28;20311;-87
2023/10/25 05:39:02;;;;;;;;;;;;;;;7.91;100.00;99797.94;5072127;28;19946;-87
2023/10/25 05:41:29;;;;;;;;;;;;;;;7.92;100.00;99801.38;5073301;28;19934;-88
2023/10/25 05:44:21;;;;;;;;;;;;;;;7.93;100.00;99795.31;5073149;28;20426;-87
2023/10/25 05:46:46;;;;;;;;;;;;;;;7.95;100.00;99790.97;5070053;28;19912;-87
2023/10/25 05:49:12;;;;;;;;;;;;;;;7.96;100.00;99792.69;5073188;28;20372;-87
2023/10/25 05:51:37;;;;;;;;;;;;;;;7.99;100.00;99790.03;5072592;28;19916;-87
2023/10/25 05:54:03;;;;;;;;;;;;;;;7.99;100.00;99782.28;5073022;28;19912;-83
2023/10/25 05:56:28;;;;;;;;;;;;;;;7.98;100.00;99781.41;5073146;28;19994;-85
2023/10/25 05:58:54;;;;;;;;;;;;;;;7.99;100.00;99777.97;5072228;28;19913;-87
2023/10/25 06:01:23;;;;;;;;;;;;;;;7.99;100.00;99783.13;5073260;28;19912;-88
2023/10/25 06:03:50;;;;;;;;;;;;;;;8.01;100.00;99775.31;5237886;22;19940;-84
2023/10/25 06:06:16;;;;;;;;;;;;;;;8.04;100.00;99777.84;5072536;28;19912;-86
2023/10/25 06:08:41;;;;;;;;;;;;;;;8.03;100.00;99776.16;5071873;28;19958;-87
2023/10/25 06:11:07;;;;;;;;;;;;;;;8.02;100.00;99777.03;5073205;28;19912;-85
2023/10/25 06:13:32;;;;;;;;;;;;;;;8.03;100.00;99770.97;5072203;28;19916;-83
2023/10/25 06:15:58;;;;;;;;;;;;;;;8.04;100.00;99767.53;5072621;28;20280;-83
2023/10/25 06:18:23;;;;;;;;;;;;;;;8.04;100.00;99772.69;5072990;28;19916;-83
2023/10/25 06:20:48;;;;;;;;;;;;;;;8.07;100.00;99770.03;5071847;28;20345;-84
2023/10/25 06:23:17;;;;;;;;;;;;;;;8.06;100.00;99768.34;5072653;28;19920;-85
2023/10/25 06:25:42;;;;;;;;;;;;;;;8.07;100.00;99759.72;5072031;28;19924;-84
2023/10/25 06:28:07;;;;;;;;;;;;;;;8.09;100.00;99759.66;5071242;28;19920;-85
2023/10/25 06:30:32;;;;;;;;;;;;;;;8.10;100.00;99757.06;5076589;28;19920;-86
2023/10/25 06:32:58;;;;;;;;;;;;;;;8.12;100.00;99751.84;5076010;28;19944;-86
2023/10/25 06:35:24;;;;;;;;;;;;;;;8.14;100.00;99750.91;5076050;28;19966;-85
2023/10/25 06:37:49;;;;;;;;;;;;;;;8.16;100.00;99741.41;5076451;28;20280;-84
2023/10/25 06:40:14;;;;;;;;;;;;;;;8.21;100.00;99740.47;5077224;28;19919;-86
2023/10/25 06:42:40;;;;;;;;;;;;;;;8.20;100.00;99734.41;5075692;28;19919;-86
2023/10/25 06:45:05;;;;;;;;;;;;;;;8.21;100.00;99736.13;5077000;28;19948;-86
2023/10/25 06:47:43;;;;;;;;;;;;;;;8.23;100.00;99726.59;5075841;28;19912;-86
2023/10/25 06:50:14;;;;;;;;;;;;;;;8.25;100.00;99726.56;5076792;28;19920;-87
2023/10/25 06:52:40;;;;;;;;;;;;;;;8.26;100.00;99723.94;5076448;28;20324;-87
2023/10/25 06:55:06;;;;;;;;;;;;;;;8.28;100.00;99722.16;5075980;28;19916;-86
2023/10/25 06:57:31;;;;;;;;;;;;;;;8.29;100.00;99713.53;5076422;28;19919;-87
2023/10/25 06:59:57;;;;;;;;;;;;;;;8.30;100.00;99706.63;5076366;28;20388;-86
2023/10/25 07:02:42;;;;;;;;;;;;;;;8.30;100.00;99701.47;5075588;28;19920;-86
2023/10/25 07:05:11;;;;;;;;;;;;;;;8.34;100.00;99701.34;5076277;28;19999;-87
2023/10/25 07:07:38;;;;;;;;;;;;;;;8.34;100.00;99697.91;5076237;28;19920;-86
2023/10/25 07:10:04;;;;;;;;;;;;;;;8.35;100.00;99686.66;5075254;28;19916;-86
2023/10/25 07:12:31;;;;;;;;;;;;;;;8.37;100.00;99686.66;5076118;28;19912;-86
2023/10/25 07:14:56;;;;;;;;;;;;;;;8.39;100.00;99685.72;5075922;28;19919;-87
2023/10/25 07:17:21;;;;;;;;;;;;;;;8.40;100.00;99684.84;5075293;28;19912;-88
2023/10/25 07:19:47;;;;;;;;;;;;;;;8.42;100.00;99679.63;5075782;28;20361;-87
2023/10/25 07:22:13;;;;;;;;;;;;;;;8.43;100.00;99670.97;5075616;28;19946;-85
2023/10/25 07:24:38;;;;;;;;;;;;;;;8.45;100.00;99667.44;5075335;28;19919;-85
2023/10/25 07:27:03;;;;;;;;;;;;;;;8.48;100.00;99664.00;5075142;28;19919;-85
2023/10/25 07:29:28;;;;;;;;;;;;;;;8.49;100.00;99666.53;5075769;28;20003;-85
2023/10/25 07:31:53;;;;;;;;;;;;;;;8.54;100.00;99676.75;5074374;28;19917;-85
2023/10/25 07:34:20;;;;;;;;;;;;;;;8.55;100.00;99675.03;5075628;28;19920;-85
2023/10/25 07:36:45;;;;;;;;;;;;;;;8.56;100.00;99671.53;5074401;28;19965;-85
2023/10/25 07:39:11;;;;;;;;;;;;;;;8.58;100.00;99670.63;5075500;28;19995;-85
2023/10/25 07:41:36;;;;;;;;;;;;;;;8.59;100.00;99666.28;5074716;28;19919;-85
2023/10/25 07:44:04;;;;;;;;;;;;;;;8.60;100.00;99667.97;5074074;28;20722;-84
2023/10/25 07:46:29;;;;;;;;;;;;;;;8.60;100.00;99655.06;5075752;28;19916;-85
2023/10/25 07:48:54;;;;;;;;;;;;;;;8.63;100.00;99663.56;5075266;28;20057;-82
2023/10/25 07:51:20;;;;;;;;;;;;;;;8.63;100.00;99648.06;5077085;28;20269;-85
2023/10/25 07:53:45;;;;;;;;;;;;;;;8.63;100.00;99639.47;5078131;28;20352;-86
2023/10/25 07:56:13;;;;;;;;;;;;;;;8.65;100.00;99643.69;5075318;28;19914;-85
2023/10/25 07:58:41;;;;;;;;;;;;;;;8.68;100.00;99640.19;5074430;28;19999;-85
2023/10/25 08:01:09;;;;;;;;;;;;;;;8.71;100.00;99628.91;5074250;28;19912;-86
2023/10/25 08:03:35;;;;;;;;;;;;;;;8.69;100.00;99618.59;5074175;28;20379;-86
2023/10/25 08:06:01;;;;;;;;;;;;;;;8.69;100.00;99617.75;5073945;28;19916;-85
2023/10/25 08:08:26;;;;;;;;;;;;;;;8.69;100.00;99613.41;5075027;28;19915;-86
2023/10/25 08:11:01;;;;;;;;;;;;;;;8.69;100.00;99607.41;5074308;28;19912;-85
2023/10/25 08:13:27;;;;;;;;;;;;;;;8.72;100.00;99605.59;5074215;28;19957;-84
2023/10/25 08:15:59;;;;;;;;;;;;;;;8.75;100.00;99610.69;5075151;28;20031;-83
2023/10/25 08:18:26;;;;;;;;;;;;;;;8.75;100.00;99600.34;5075088;28;20035;-85
2023/10/25 08:20:51;;;;;;;;;;;;;;;8.78;100.00;99597.63;5073817;28;19912;-85
2023/10/25 08:23:16;;;;;;;;;;;;;;;8.79;100.00;99589.00;5074990;28;19912;-85
2023/10/25 08:25:42;;;;;;;;;;;;;;;8.81;100.00;99589.81;5074333;28;19913;-85
2023/10/25 08:28:09;;;;;;;;;;;;;;;8.83;100.00;99594.09;5073419;28;19916;-85
2023/10/25 08:30:34;;;;;;;;;;;;;;;8.81;100.00;99592.38;5074745;28;20332;-86
2023/10/25 08:33:00;;;;;;;;;;;;;;;8.85;100.00;99587.97;5073632;28;19967;-88
2023/10/25 08:35:26;;;;;;;;;;;;;;;8.89;100.00;99584.41;5074332;28;19947;-85
2023/10/25 08:37:51;;;;;;;;;;;;;;;8.93;100.00;99577.41;5073850;28;20412;-85
2023/10/25 08:40:16;;;;;;;;;;;;;;;8.93;100.00;99582.59;5073662;28;19912;-85
2023/10/25 08:42:41;;;;;;;;;;;;;;;8.92;100.00;99575.72;5074040;28;20331;-86
2023/10/25 08:45:07;;;;;;;;;;;;;;;8.92;100.00;99567.94;5074117;28;20384;-85
2023/10/25 08:47:32;;;;;;;;;;;;;;;8.91;100.00;99561.94;5073379;28;20403;-85
2023/10/25 08:49:58;;;;;;;;;;;;;;;8.93;100.00;99561.88;5073645;28;19916;-86
2023/10/25 08:52:26;;;;;;;;;;;;;;;8.92;100.00;99557.59;5074149;28;20364;-85
2023/10/25 08:54:51;;;;;;;;;;;;;;;8.87;100.00;99551.72;5073527;28;20013;-85
2023/10/25 08:57:17;;;;;;;;;;;;;;;8.83;100.00;99550.09;5074010;28;19916;-85
2023/10/25 08:59:43;;;;;;;;;;;;;;;8.84;100.00;99549.22;5073681;28;19916;-85
2023/10/25 09:02:10;;;;;;;;;;;;;;;8.85;100.00;99543.97;5072738;28;19916;-83
2023/10/25 09:04:35;;;;;;;;;;;;;;;8.84;100.00;99544.03;5073550;28;19996;-82
2023/10/25 09:07:00;;;;;;;;;;;;;;;8.84;100.00;99536.28;5073481;28;20011;-82
2023/10/25 09:09:37;;;;;;;;;;;;;;;8.80;100.00;99536.38;5073059;28;20369;-85
2023/10/25 09:12:03;;;;;;;;;;;;;;;8.78;100.00;99526.97;5073574;28;19916;-84
2023/10/25 09:14:44;;;;;;;;;;;;;;;8.78;100.00;99525.22;5073095;28;19920;-84
2023/10/25 09:17:09;;;;;;;;;;;;;;;8.79;100.00;99520.91;5073288;28;19950;-83
2023/10/25 09:19:35;;;;;;;;;;;;;;;8.79;100.00;99520.91;5073647;28;20299;-81
2023/10/25 09:22:18;;;;;;;;;;;;;;;8.79;100.00;99518.31;5073253;28;20355;-83
2023/10/25 09:24:52;;;;;;;;;;;;;;;8.80;100.00;99507.91;5073146;28;19974;-84
2023/10/25 09:27:18;;;;;;;;;;;;;;;8.80;100.00;99507.06;5073294;28;19912;-84
2023/10/25 09:29:43;;;;;;;;;;;;;;;8.78;100.00;99511.44;5072347;28;19912;-83
2023/10/25 09:32:09;;;;;;;;;;;;;;;8.80;100.00;99515.66;5073465;28;20007;-84
2023/10/25 09:34:34;;;;;;;;;;;;;;;8.86;100.00;99529.31;5073888;28;19912;-84
2023/10/25 09:37:04;;;;;;;;;;;;;;;8.89;100.00;99508.53;5072543;28;20314;-83
2023/10/25 09:39:30;;;;;;;;;;;;;;;8.89;100.00;99511.97;5073371;28;19913;-83
2023/10/25 09:41:59;;;;;;;;;;;;;;;8.91;100.00;99505.00;5073242;28;19912;-82
2023/10/25 09:44:28;;;;;;;;;;;;;;;8.85;100.00;99501.75;5072429;28;20284;-83
2023/10/25 09:46:56;;;;;;;;;;;;;;;8.83;100.00;99490.59;5073263;28;19965;-82
2023/10/25 09:49:26;;;;;;;;;;;;;;;8.74;100.00;99479.66;5073540;28;19916;-82
2023/10/25 09:52:01;;;;;;;;;;;;;;;8.74;100.00;99471.03;5072203;28;19966;-82
2023/10/25 09:54:36;;;;;;;;;;;;;;;8.73;100.00;99470.19;5073627;28;19991;-82
2023/10/25 09:57:02;;;;;;;;;;;;;;;8.72;100.00;99465.06;5073337;28;19920;-83
2023/10/25 09:59:29;;;;;;;;;;;;;;;8.72;100.00;99460.72;5072724;28;20284;-83
2023/10/25 10:01:55;;;;;;;;;;;;;;;8.74;100.00;99466.72;5072735;28;19916;-83
2023/10/25 10:04:23;;;;;;;;;;;;;;;8.76;100.00;99467.53;5075810;28;19916;-82
2023/10/25 10:07:01;;;;;;;;;;;;;;;8.74;100.00;99458.94;5076959;28;20339;-83
2023/10/25 10:09:52;;;;;;;;;;;;;;;8.71;100.00;99463.38;5077553;28;20288;-82
2023/10/25 10:12:18;;;;;;;;;;;;;;;8.64;100.00;99449.78;5073618;28;19912;-83
2023/10/25 10:14:44;;;;;;;;;;;;;;;8.66;100.00;99448.00;5077122;28;19999;-83
2023/10/25 10:17:11;;;;;;;;;;;;;;;8.63;100.00;99443.75;5076775;28;19916;-84
2023/10/25 10:19:37;;;;;;;;;;;;;;;8.62;100.00;99436.03;5076893;28;19916;-82
2023/10/25 10:22:04;;;;;;;;;;;;;;;8.60;100.00;99422.28;5077260;28;19935;-82
2023/10/25 10:25:00;;;;;;;;;;;;;;;8.62;100.00;99426.53;5077759;28;20347;-83
2023/10/25 10:27:51;;;;;;;;;;;;;;;8.63;100.00;99415.28;5077342;28;19976;-83
2023/10/25 10:30:35;;;;;;;;;;;;;;;8.66;100.00;99411.78;5067690;28;19919;-82
2023/10/25 10:33:01;;;;;;;;;;;;;;;8.64;100.00;99400.63;5078217;28;19916;-82
2023/10/25 10:35:28;;;;;;;;;;;;;;;8.65;100.00;99399.75;5078794;28;19912;-82
2023/10/25 10:37:54;;;;;;;;;;;;;;;8.65;100.00;99390.22;5077009;28;19999;-83
2023/10/25 10:40:19;;;;;;;;;;;;;;;8.68;100.00;99385.88;5076212;28;19919;-82
2023/10/25 10:42:45;;;;;;;;;;;;;;;8.67;100.00;99374.66;5076246;28;20420;-81
2023/10/25 10:45:12;;;;;;;;;;;;;;;8.68;100.00;99375.53;5076222;28;20395;-82
2023/10/25 10:47:41;;;;;;;;;;;;;;;8.70;100.00;99371.97;5075274;28;19912;-82
2023/10/25 10:50:06;;;;;;;;;;;;;;;8.69;100.00;99370.28;5076416;28;19912;-83
2023/10/25 10:52:31;;;;;;;;;;;;;;;8.72;100.00;99367.63;5075740;28;20272;-84
2023/10/25 10:54:56;;;;;;;;;;;;;;;8.76;100.00;99355.44;5072493;28;19939;-83
2023/10/25 10:57:24;;;;;;;;;;;;;;;8.78;100.00;99354.47;5076942;28;19916;-84
2023/10/25 10:59:50;;;;;;;;;;;;;;;8.78;100.00;99349.28;5075688;28;19927;-82
2023/10/25 11:02:16;;;;;;;;;;;;;;;8.80;100.00;99342.34;5074264;28;19917;-83
2023/10/25 11:04:41;;;;;;;;;;;;;;;8.76;100.00;99332.16;5075919;28;19923;-83
2023/10/25 11:07:07;;;;;;;;;;;;;;;8.75;100.00;99331.31;5076489;28;19916;-82
2023/10/25 11:09:32;;;;;;;;;;;;;;;8.78;100.00;99322.59;5075838;28;19923;-82
2023/10/25 11:12:09;;;;;;;;;;;;;;;8.81;100.00;99317.34;5075496;28;20368;-82
2023/10/25 11:14:44;;;;;;;;;;;;;;;8.83;100.00;99314.69;5058149;28;19917;-83
2023/10/25 11:17:10;;;;;;;;;;;;;;;8.77;100.00;99311.41;5066113;28;19913;-83
2023/10/25 11:19:35;;;;;;;;;;;;;;;8.81;100.00;99310.41;5075361;28;19916;-83
2023/10/25 11:22:00;;;;;;;;;;;;;;;8.84;100.00;99308.63;5074785;28;19912;-84
2023/10/25 11:24:26;;;;;;;;;;;;;;;8.83;100.00;99296.56;5075765;28;19954;-82
2023/10/25 11:26:52;;;;;;;;;;;;;;;8.89;100.00;99296.38;5075275;28;19916;-81
2023/10/25 11:29:17;;;;;;;;;;;;;;;8.88;100.00;99279.19;5074754;28;19909;-82
2023/10/25 11:31:44;;;;;;;;;;;;;;;8.86;100.00;99276.63;5075585;28;19913;-82
2023/10/25 11:34:09;;;;;;;;;;;;;;;8.91;100.00;99272.16;5074822;28;19920;-82
2023/10/25 11:36:35;;;;;;;;;;;;;;;8.91;100.00;99268.69;5073950;28;19999;-82
2023/10/25 11:39:09;;;;;;;;;;;;;;;8.95;100.00;99259.94;5074642;28;19916;-81
2023/10/25 11:41:34;;;;;;;;;;;;;;;8.99;100.00;99263.28;5073064;28;19913;-82
2023/10/25 11:44:00;;;;;;;;;;;;;;;8.99;100.00;99250.34;5074988;28;19927;-82
2023/10/25 11:46:44;;;;;;;;;;;;;;;8.98;100.00;99262.44;5068339;28;19999;-83
2023/10/25 11:49:09;;;;;;;;;;;;;;;9.00;100.00;99244.25;5076007;28;19917;-82
2023/10/25 11:51:35;;;;;;;;;;;;;;;9.03;100.00;99246.75;5074667;28;19916;-83
2023/10/25 11:54:02;;;;;;;;;;;;;;;9.05;100.00;99248.38;5075059;28;20007;-82
2023/10/25 11:56:27;;;;;;;;;;;;;;;9.05;100.00;99240.63;5075896;28;19943;-82
2023/10/25 11:58:52;;;;;;;;;;;;;;;9.07;100.00;99235.38;5074379;28;19921;-82
2023/10/25 12:01:17;;;;;;;;;;;;;;;9.10;100.00;99230.97;5076171;28;19951;-82
2023/10/25 12:03:43;;;;;;;;;;;;;;;9.09;100.00;99233.59;5074962;28;19966;-82
2023/10/25 12:06:08;;;;;;;;;;;;;;;9.11;100.00;99229.22;5074976;28;20044;-82
2023/10/25 12:08:33;;;;;;;;;;;;;;;9.14;100.00;99212.72;5073751;28;20403;-83
2023/10/25 12:10:59;;;;;;;;;;;;;;;9.15;100.00;99207.50;5074414;28;19916;-82
2023/10/25 12:13:24;;;;;;;;;;;;;;;9.15;100.00;99202.31;5074572;28;19912;-83
2023/10/25 12:15:49;;;;;;;;;;;;;;;9.18;100.00;99209.97;5074750;28;19913;-83
2023/10/25 12:18:16;;;;;;;;;;;;;;;9.19;100.00;99200.47;5074619;28;20365;-82
2023/10/25 12:20:41;;;;;;;;;;;;;;;9.21;100.00;99196.91;5074653;28;20426;-83
2023/10/25 12:23:09;;;;;;;;;;;;;;;9.25;100.00;99192.47;5074941;28;19912;-82
2023/10/25 12:25:40;;;;;;;;;;;;;;;9.30;100.00;99187.97;5074223;28;19912;-83
2023/10/25 12:28:05;;;;;;;;;;;;;;;9.33;100.00;99185.28;5074533;28;19912;-82
2023/10/25 12:30:30;;;;;;;;;;;;;;;9.37;100.00;99178.25;5074231;28;19923;-83
2023/10/25 12:32:56;;;;;;;;;;;;;;;9.40;100.00;99181.56;5055800;28;19919;-83
2023/10/25 12:35:21;;;;;;;;;;;;;;;9.38;100.00;99177.34;5074620;28;19919;-83
2023/10/25 12:37:47;;;;;;;;;;;;;;;9.34;100.00;99170.59;5074332;28;19920;-83
2023/10/25 12:40:12;;;;;;;;;;;;;;;9.37;100.00;99179.06;5072876;28;19927;-82
2023/10/25 12:42:40;;;;;;;;;;;;;;;9.40;100.00;99170.38;5074337;28;20389;-83
2023/10/25 12:45:05;;;;;;;;;;;;;;;9.44;100.00;99171.94;5074092;28;20376;-85
2023/10/25 12:47:36;;;;;;;;;;;;;;;9.42;100.00;99160.78;5073402;28;19912;-83
2023/10/25 12:50:04;;;;;;;;;;;;;;;9.43;100.00;99165.91;5073994;28;19919;-84
2023/10/25 12:52:29;;;;;;;;;;;;;;;9.48;100.00;99157.97;5074463;28;19943;-83